sensor_id;sensor_type;location;lat;lon;timestamp;temperature;humidity
55648;DHT22;45266;48.756;9.246;2023-03-23T00:00:58;10.00;99.90
55648;DHT22;45266;48.756;9.246;2023-03-23T00:01:59;10.00;99.90
55648;DHT22;45266;48.756;9.246;2023-03-23T00:03:00;10.00;99.90
55648;DHT22;45266;48.756;9.246;2023-03-23T00:04:02;10.00;99.90
55648;DHT22;45266;48.756;9.246;2023-03-23T00:05:03;10.00;99.90
55648;DHT22;45266;48.756;9.246;2023-03-23T00:06:04;10.00;99.90
55648;DHT22;45266;48.756;9.246;2023-03-23T00:07:06;10.00;99.90
55648;DHT22;45266;48.756;9.246;2023-03-23T00:08:07;10.00;99.90
55648;DHT22;45266;48.756;9.246;2023-03-23T00:09:19;10.10;99.90
55648;DHT22;45266;48.756;9.246;2023-03-23T00:10:24;10.10;99.90
55648;DHT22;45266;48.756;9.246;2023-03-23T00:11:28;10.10;99.90
55648;DHT22;45266;48.756;9.246;2023-03-23T00:12:32;10.10;99.90
55648;DHT22;45266;48.756;9.246;2023-03-23T00:13:35;10.10;99.90
55648;DHT22;45266;48.756;9.246;2023-03-23T00:14:36;10.10;99.90
55648;DHT22;45266;48.756;9.246;2023-03-23T00:15:41;10.10;99.90
55648;DHT22;45266;48.756;9.246;2023-03-23T00:16:42;10.10;99.90
55648;DHT22;45266;48.756;9.246;2023-03-23T00:17:43;10.10;99.90
55648;DHT22;45266;48.756;9.246;2023-03-23T00:18:48;10.00;99.90
55648;DHT22;45266;48.756;9.246;2023-03-23T00:19:52;10.10;99.90
55648;DHT22;45266;48.756;9.246;2023-03-23T00:20:56;10.10;99.90
55648;DHT22;45266;48.756;9.246;2023-03-23T00:21:57;10.10;99.90
55648;DHT22;45266;48.756;9.246;2023-03-23T00:23:01;10.10;99.90
55648;DHT22;45266;48.756;9.246;2023-03-23T00:24:14;10.10;99.90
55648;DHT22;45266;48.756;9.246;2023-03-23T00:25:16;10.10;99.90
55648;DHT22;45266;48.756;9.246;2023-03-23T00:26:17;10.10;99.90
55648;DHT22;45266;48.756;9.246;2023-03-23T00:27:18;10.10;99.90
55648;DHT22;45266;48.756;9.246;2023-03-23T00:28:19;10.00;99.90
55648;DHT22;45266;48.756;9.246;2023-03-23T00:29:25;10.00;99.90
55648;DHT22;45266;48.756;9.246;2023-03-23T00:30:26;10.00;99.90
55648;DHT22;45266;48.756;9.246;2023-03-23T00:31:27;10.00;99.90
55648;DHT22;45266;48.756;9.246;2023-03-23T00:32:31;10.00;99.90
55648;DHT22;45266;48.756;9.246;2023-03-23T00:33:34;10.10;99.90
55648;DHT22;45266;48.756;9.246;2023-03-23T00:34:39;10.00;99.90
55648;DHT22;45266;48.756;9.246;2023-03-23T00:35:40;10.00;99.90
55648;DHT22;45266;48.756;9.246;2023-03-23T00:36:41;10.00;99.90
55648;DHT22;45266;48.756;9.246;2023-03-23T00:37:43;10.00;99.90
55648;DHT22;45266;48.756;9.246;2023-03-23T00:38:44;10.00;99.90
55648;DHT22;45266;48.756;9.246;2023-03-23T00:39:47;10.00;99.90
55648;DHT22;45266;48.756;9.246;2023-03-23T00:40:48;10.00;99.90
55648;DHT22;45266;48.756;9.246;2023-03-23T00:41:48;10.00;99.90
55648;DHT22;45266;48.756;9.246;2023-03-23T00:42:50;10.00;99.90
55648;DHT22;45266;48.756;9.246;2023-03-23T00:43:51;9.90;99.90
55648;DHT22;45266;48.756;9.246;2023-03-23T00:44:52;9.90;99.90
55648;DHT22;45266;48.756;9.246;2023-03-23T00:46:00;10.00;99.90
55648;DHT22;45266;48.756;9.246;2023-03-23T00:47:02;10.00;99.90
55648;DHT22;45266;48.756;9.246;2023-03-23T00:48:03;10.00;99.90
55648;DHT22;45266;48.756;9.246;2023-03-23T00:49:04;9.90;99.90
55648;DHT22;45266;48.756;9.246;2023-03-23T00:50:05;10.00;99.90
55648;DHT22;45266;48.756;9.246;2023-03-23T00:51:07;10.00;99.90
55648;DHT22;45266;48.756;9.246;2023-03-23T00:52:11;10.00;99.90
55648;DHT22;45266;48.756;9.246;2023-03-23T00:53:13;10.00;99.90
55648;DHT22;45266;48.756;9.246;2023-03-23T00:54:13;9.90;99.90
55648;DHT22;45266;48.756;9.246;2023-03-23T00:55:14;9.90;99.90
55648;DHT22;45266;48.756;9.246;2023-03-23T00:56:15;9.90;99.90
55648;DHT22;45266;48.756;9.246;2023-03-23T00:57:16;9.90;99.90
55648;DHT22;45266;48.756;9.246;2023-03-23T00:58:17;9.90;99.90
55648;DHT22;45266;48.756;9.246;2023-03-23T00:59:19;9.90;99.90
55648;DHT22;45266;48.756;9.246;2023-03-23T01:00:20;9.90;99.90
55648;DHT22;45266;48.756;9.246;2023-03-23T01:01:21;9.90;99.90
55648;DHT22;45266;48.756;9.246;2023-03-23T01:02:21;9.90;99.90
55648;DHT22;45266;48.756;9.246;2023-03-23T01:03:25;9.90;99.90
55648;DHT22;45266;48.756;9.246;2023-03-23T01:04:26;9.90;99.90
55648;DHT22;45266;48.756;9.246;2023-03-23T01:05:28;9.90;99.90
55648;DHT22;45266;48.756;9.246;2023-03-23T01:06:34;9.90;99.90
55648;DHT22;45266;48.756;9.246;2023-03-23T01:07:35;9.90;99.90
55648;DHT22;45266;48.756;9.246;2023-03-23T01:08:36;9.90;99.90
55648;DHT22;45266;48.756;9.246;2023-03-23T01:09:39;9.90;99.90
55648;DHT22;45266;48.756;9.246;2023-03-23T01:10:40;9.90;99.90
55648;DHT22;45266;48.756;9.246;2023-03-23T01:11:42;9.90;99.90
55648;DHT22;45266;48.756;9.246;2023-03-23T01:12:44;9.90;99.90
55648;DHT22;45266;48.756;9.246;2023-03-23T01:13:46;9.90;99.90
55648;DHT22;45266;48.756;9.246;2023-03-23T01:14:47;9.90;99.90
55648;DHT22;45266;48.756;9.246;2023-03-23T01:15:48;9.90;99.90
55648;DHT22;45266;48.756;9.246;2023-03-23T01:16:48;9.90;99.90
55648;DHT22;45266;48.756;9.246;2023-03-23T01:17:49;9.90;99.90
55648;DHT22;45266;48.756;9.246;2023-03-23T01:18:50;9.90;99.90
55648;DHT22;45266;48.756;9.246;2023-03-23T01:19:51;9.90;99.90
55648;DHT22;45266;48.756;9.246;2023-03-23T01:20:52;9.90;99.90
55648;DHT22;45266;48.756;9.246;2023-03-23T01:21:53;9.90;99.90
55648;DHT22;45266;48.756;9.246;2023-03-23T01:22:53;9.90;99.90
55648;DHT22;45266;48.756;9.246;2023-03-23T01:24:00;9.90;99.90
55648;DHT22;45266;48.756;9.246;2023-03-23T01:25:01;9.90;99.90
55648;DHT22;45266;48.756;9.246;2023-03-23T01:26:11;9.90;99.90
55648;DHT22;45266;48.756;9.246;2023-03-23T01:27:12;10.00;99.90
55648;DHT22;45266;48.756;9.246;2023-03-23T01:28:12;10.00;99.90
55648;DHT22;45266;48.756;9.246;2023-03-23T01:29:13;9.90;99.90
55648;DHT22;45266;48.756;9.246;2023-03-23T01:30:14;10.00;99.90
55648;DHT22;45266;48.756;9.246;2023-03-23T01:31:20;10.00;99.90
55648;DHT22;45266;48.756;9.246;2023-03-23T01:32:21;10.00;99.90
55648;DHT22;45266;48.756;9.246;2023-03-23T01:33:22;10.00;99.90
55648;DHT22;45266;48.756;9.246;2023-03-23T01:34:22;10.00;99.90
55648;DHT22;45266;48.756;9.246;2023-03-23T01:35:23;10.00;99.90
55648;DHT22;45266;48.756;9.246;2023-03-23T01:36:26;10.00;99.90
55648;DHT22;45266;48.756;9.246;2023-03-23T01:37:30;10.00;99.90
55648;DHT22;45266;48.756;9.246;2023-03-23T01:38:31;10.00;99.90
55648;DHT22;45266;48.756;9.246;2023-03-23T01:39:32;10.00;99.90
55648;DHT22;45266;48.756;9.246;2023-03-23T01:40:32;10.00;99.90
55648;DHT22;45266;48.756;9.246;2023-03-23T01:41:34;10.00;99.90
55648;DHT22;45266;48.756;9.246;2023-03-23T01:42:36;9.90;99.90
55648;DHT22;45266;48.756;9.246;2023-03-23T01:43:57;10.00;99.90
55648;DHT22;45266;48.756;9.246;2023-03-23T01:46:19;10.00;99.90
55648;DHT22;45266;48.756;9.246;2023-03-23T01:47:22;10.00;99.90
55648;DHT22;45266;48.756;9.246;2023-03-23T01:48:30;10.00;99.90
55648;DHT22;45266;48.756;9.246;2023-03-23T01:49:36;10.00;99.90
55648;DHT22;45266;48.756;9.246;2023-03-23T01:50:53;10.00;99.90
55648;DHT22;45266;48.756;9.246;2023-03-23T01:52:02;10.00;99.90
55648;DHT22;45266;48.756;9.246;2023-03-23T01:53:06;9.90;99.90
55648;DHT22;45266;48.756;9.246;2023-03-23T01:54:12;9.90;99.90
55648;DHT22;45266;48.756;9.246;2023-03-23T01:55:20;9.90;99.90
55648;DHT22;45266;48.756;9.246;2023-03-23T01:56:24;9.90;99.90
55648;DHT22;45266;48.756;9.246;2023-03-23T01:57:26;9.90;99.90
55648;DHT22;45266;48.756;9.246;2023-03-23T01:58:30;9.90;99.90
55648;DHT22;45266;48.756;9.246;2023-03-23T01:59:33;9.90;99.90
55648;DHT22;45266;48.756;9.246;2023-03-23T02:00:35;9.90;99.90
55648;DHT22;45266;48.756;9.246;2023-03-23T02:01:36;9.90;99.90
55648;DHT22;45266;48.756;9.246;2023-03-23T02:02:41;9.90;99.90
55648;DHT22;45266;48.756;9.246;2023-03-23T02:03:44;9.90;99.90
55648;DHT22;45266;48.756;9.246;2023-03-23T02:04:46;9.80;99.90
55648;DHT22;45266;48.756;9.246;2023-03-23T02:05:46;9.90;99.90
55648;DHT22;45266;48.756;9.246;2023-03-23T02:06:47;9.90;99.90
55648;DHT22;45266;48.756;9.246;2023-03-23T02:07:48;9.90;99.90
55648;DHT22;45266;48.756;9.246;2023-03-23T02:08:51;9.90;99.90
55648;DHT22;45266;48.756;9.246;2023-03-23T02:09:52;9.90;99.90
55648;DHT22;45266;48.756;9.246;2023-03-23T02:10:53;9.90;99.90
55648;DHT22;45266;48.756;9.246;2023-03-23T02:11:54;9.80;99.90
55648;DHT22;45266;48.756;9.246;2023-03-23T02:12:55;9.80;99.90
55648;DHT22;45266;48.756;9.246;2023-03-23T02:13:56;9.90;99.90
55648;DHT22;45266;48.756;9.246;2023-03-23T02:14:57;9.80;99.90
55648;DHT22;45266;48.756;9.246;2023-03-23T02:20:13;9.80;99.90
55648;DHT22;45266;48.756;9.246;2023-03-23T02:23:13;9.80;99.90
55648;DHT22;45266;48.756;9.246;2023-03-23T02:26:31;9.80;99.90
55648;DHT22;45266;48.756;9.246;2023-03-23T02:28:26;9.70;99.90
55648;DHT22;45266;48.756;9.246;2023-03-23T02:29:52;9.70;99.90
55648;DHT22;45266;48.756;9.246;2023-03-23T02:33:11;9.70;99.90
55648;DHT22;45266;48.756;9.246;2023-03-23T02:34:27;9.70;99.90
55648;DHT22;45266;48.756;9.246;2023-03-23T02:35:36;9.70;99.90
55648;DHT22;45266;48.756;9.246;2023-03-23T02:37:52;9.70;99.90
55648;DHT22;45266;48.756;9.246;2023-03-23T02:38:55;9.70;99.90
55648;DHT22;45266;48.756;9.246;2023-03-23T02:40:18;9.70;99.90
55648;DHT22;45266;48.756;9.246;2023-03-23T02:41:24;9.70;99.90
55648;DHT22;45266;48.756;9.246;2023-03-23T02:42:29;9.70;99.90
55648;DHT22;45266;48.756;9.246;2023-03-23T02:43:44;9.70;99.90
55648;DHT22;45266;48.756;9.246;2023-03-23T02:44:47;9.70;99.90
55648;DHT22;45266;48.756;9.246;2023-03-23T02:45:50;9.60;99.90
55648;DHT22;45266;48.756;9.246;2023-03-23T02:46:53;9.60;99.90
55648;DHT22;45266;48.756;9.246;2023-03-23T02:47:57;9.70;99.90
55648;DHT22;45266;48.756;9.246;2023-03-23T02:49:02;9.70;99.90
55648;DHT22;45266;48.756;9.246;2023-03-23T02:50:05;9.70;99.90
55648;DHT22;45266;48.756;9.246;2023-03-23T02:51:09;9.70;99.90
55648;DHT22;45266;48.756;9.246;2023-03-23T02:52:14;9.70;99.90
55648;DHT22;45266;48.756;9.246;2023-03-23T02:53:24;9.60;99.90
55648;DHT22;45266;48.756;9.246;2023-03-23T02:54:26;9.60;99.90
55648;DHT22;45266;48.756;9.246;2023-03-23T02:55:28;9.60;99.90
55648;DHT22;45266;48.756;9.246;2023-03-23T02:56:34;9.60;99.90
55648;DHT22;45266;48.756;9.246;2023-03-23T02:57:35;9.60;99.90
55648;DHT22;45266;48.756;9.246;2023-03-23T02:58:37;9.60;99.90
55648;DHT22;45266;48.756;9.246;2023-03-23T02:59:39;9.60;99.90
55648;DHT22;45266;48.756;9.246;2023-03-23T03:00:40;9.60;99.90
55648;DHT22;45266;48.756;9.246;2023-03-23T03:02:53;9.60;99.90
55648;DHT22;45266;48.756;9.246;2023-03-23T03:03:56;9.60;99.90
55648;DHT22;45266;48.756;9.246;2023-03-23T03:07:44;9.60;99.90
55648;DHT22;45266;48.756;9.246;2023-03-23T03:08:55;9.60;99.90
55648;DHT22;45266;48.756;9.246;2023-03-23T03:10:29;9.60;99.90
55648;DHT22;45266;48.756;9.246;2023-03-23T03:11:33;9.60;99.90
55648;DHT22;45266;48.756;9.246;2023-03-23T03:13:10;9.60;99.90
55648;DHT22;45266;48.756;9.246;2023-03-23T03:14:24;9.60;99.90
55648;DHT22;45266;48.756;9.246;2023-03-23T03:15:34;9.60;99.90
55648;DHT22;45266;48.756;9.246;2023-03-23T03:17:00;9.60;99.90
55648;DHT22;45266;48.756;9.246;2023-03-23T03:18:42;9.60;99.90
55648;DHT22;45266;48.756;9.246;2023-03-23T03:19:47;9.60;99.90
55648;DHT22;45266;48.756;9.246;2023-03-23T03:20:53;9.50;99.90
55648;DHT22;45266;48.756;9.246;2023-03-23T03:21:56;9.50;99.90
55648;DHT22;45266;48.756;9.246;2023-03-23T03:22:59;9.50;99.90
55648;DHT22;45266;48.756;9.246;2023-03-23T03:24:03;9.50;99.90
55648;DHT22;45266;48.756;9.246;2023-03-23T03:25:05;9.50;99.90
55648;DHT22;45266;48.756;9.246;2023-03-23T03:26:07;9.50;99.90
55648;DHT22;45266;48.756;9.246;2023-03-23T03:27:18;9.50;99.90
55648;DHT22;45266;48.756;9.246;2023-03-23T03:28:21;9.60;99.90
55648;DHT22;45266;48.756;9.246;2023-03-23T03:29:26;9.50;99.90
55648;DHT22;45266;48.756;9.246;2023-03-23T03:30:30;9.50;99.90
55648;DHT22;45266;48.756;9.246;2023-03-23T03:31:39;9.50;99.90
55648;DHT22;45266;48.756;9.246;2023-03-23T03:32:48;9.50;99.90
55648;DHT22;45266;48.756;9.246;2023-03-23T03:33:51;9.50;99.90
55648;DHT22;45266;48.756;9.246;2023-03-23T03:34:52;9.50;99.90
55648;DHT22;45266;48.756;9.246;2023-03-23T03:36:00;9.50;99.90
55648;DHT22;45266;48.756;9.246;2023-03-23T03:37:01;9.40;99.90
55648;DHT22;45266;48.756;9.246;2023-03-23T03:38:09;9.40;99.90
55648;DHT22;45266;48.756;9.246;2023-03-23T03:39:11;9.50;99.90
55648;DHT22;45266;48.756;9.246;2023-03-23T03:40:16;9.40;99.90
55648;DHT22;45266;48.756;9.246;2023-03-23T03:41:18;9.40;99.90
55648;DHT22;45266;48.756;9.246;2023-03-23T03:42:19;9.50;99.90
55648;DHT22;45266;48.756;9.246;2023-03-23T03:43:20;9.50;99.90
55648;DHT22;45266;48.756;9.246;2023-03-23T03:44:21;9.50;99.90
55648;DHT22;45266;48.756;9.246;2023-03-23T03:45:21;9.50;99.90
55648;DHT22;45266;48.756;9.246;2023-03-23T03:46:22;9.50;99.90
55648;DHT22;45266;48.756;9.246;2023-03-23T03:47:27;9.50;99.90
55648;DHT22;45266;48.756;9.246;2023-03-23T03:48:27;9.50;99.90
55648;DHT22;45266;48.756;9.246;2023-03-23T03:49:28;9.50;99.90
55648;DHT22;45266;48.756;9.246;2023-03-23T03:50:29;9.50;99.90
55648;DHT22;45266;48.756;9.246;2023-03-23T03:51:31;9.40;99.90
55648;DHT22;45266;48.756;9.246;2023-03-23T03:52:32;9.50;99.90
55648;DHT22;45266;48.756;9.246;2023-03-23T03:53:33;9.50;99.90
55648;DHT22;45266;48.756;9.246;2023-03-23T03:54:34;9.50;99.90
55648;DHT22;45266;48.756;9.246;2023-03-23T03:55:35;9.50;99.90
55648;DHT22;45266;48.756;9.246;2023-03-23T03:56:38;9.50;99.90
55648;DHT22;45266;48.756;9.246;2023-03-23T03:57:41;9.40;99.90
55648;DHT22;45266;48.756;9.246;2023-03-23T03:58:42;9.50;99.90
55648;DHT22;45266;48.756;9.246;2023-03-23T03:59:43;9.50;99.90
55648;DHT22;45266;48.756;9.246;2023-03-23T04:00:44;9.50;99.90
55648;DHT22;45266;48.756;9.246;2023-03-23T04:01:48;9.50;99.90
55648;DHT22;45266;48.756;9.246;2023-03-23T04:02:54;9.50;99.90
55648;DHT22;45266;48.756;9.246;2023-03-23T04:03:55;9.50;99.90
55648;DHT22;45266;48.756;9.246;2023-03-23T04:04:56;9.50;99.90
55648;DHT22;45266;48.756;9.246;2023-03-23T04:05:57;9.50;99.90
55648;DHT22;45266;48.756;9.246;2023-03-23T04:06:59;9.50;99.90
55648;DHT22;45266;48.756;9.246;2023-03-23T04:08:03;9.50;99.90
55648;DHT22;45266;48.756;9.246;2023-03-23T04:09:05;9.50;99.90
55648;DHT22;45266;48.756;9.246;2023-03-23T04:10:07;9.50;99.90
55648;DHT22;45266;48.756;9.246;2023-03-23T04:11:10;9.50;99.90
55648;DHT22;45266;48.756;9.246;2023-03-23T04:12:12;9.50;99.90
55648;DHT22;45266;48.756;9.246;2023-03-23T04:13:13;9.50;99.90
55648;DHT22;45266;48.756;9.246;2023-03-23T04:14:13;9.40;99.90
55648;DHT22;45266;48.756;9.246;2023-03-23T04:15:15;9.50;99.90
55648;DHT22;45266;48.756;9.246;2023-03-23T04:16:16;9.40;99.90
55648;DHT22;45266;48.756;9.246;2023-03-23T04:17:17;9.50;99.90
55648;DHT22;45266;48.756;9.246;2023-03-23T04:18:18;9.50;99.90
55648;DHT22;45266;48.756;9.246;2023-03-23T04:19:19;9.40;99.90
55648;DHT22;45266;48.756;9.246;2023-03-23T04:20:20;9.50;99.90
55648;DHT22;45266;48.756;9.246;2023-03-23T04:21:21;9.40;99.90
55648;DHT22;45266;48.756;9.246;2023-03-23T04:22:21;9.40;99.90
55648;DHT22;45266;48.756;9.246;2023-03-23T04:23:28;9.40;99.90
55648;DHT22;45266;48.756;9.246;2023-03-23T04:24:30;9.40;99.90
55648;DHT22;45266;48.756;9.246;2023-03-23T04:25:33;9.50;99.90
55648;DHT22;45266;48.756;9.246;2023-03-23T04:26:34;9.50;99.90
55648;DHT22;45266;48.756;9.246;2023-03-23T04:27:35;9.50;99.90
55648;DHT22;45266;48.756;9.246;2023-03-23T04:28:36;9.50;99.90
55648;DHT22;45266;48.756;9.246;2023-03-23T04:29:37;9.50;99.90
55648;DHT22;45266;48.756;9.246;2023-03-23T04:30:37;9.50;99.90
55648;DHT22;45266;48.756;9.246;2023-03-23T04:31:38;9.50;99.90
55648;DHT22;45266;48.756;9.246;2023-03-23T04:32:40;9.50;99.90
55648;DHT22;45266;48.756;9.246;2023-03-23T04:33:44;9.50;99.90
55648;DHT22;45266;48.756;9.246;2023-03-23T04:34:44;9.50;99.90
55648;DHT22;45266;48.756;9.246;2023-03-23T04:35:46;9.50;99.90
55648;DHT22;45266;48.756;9.246;2023-03-23T04:36:48;9.50;99.90
55648;DHT22;45266;48.756;9.246;2023-03-23T04:37:49;9.50;99.90
55648;DHT22;45266;48.756;9.246;2023-03-23T04:38:50;9.50;99.90
55648;DHT22;45266;48.756;9.246;2023-03-23T04:39:52;9.50;99.90
55648;DHT22;45266;48.756;9.246;2023-03-23T04:41:00;9.50;99.90
55648;DHT22;45266;48.756;9.246;2023-03-23T04:42:02;9.50;99.90
55648;DHT22;45266;48.756;9.246;2023-03-23T04:43:04;9.50;99.90
55648;DHT22;45266;48.756;9.246;2023-03-23T04:44:06;9.50;99.90
55648;DHT22;45266;48.756;9.246;2023-03-23T04:45:08;9.60;99.90
55648;DHT22;45266;48.756;9.246;2023-03-23T04:46:09;9.60;99.90
55648;DHT22;45266;48.756;9.246;2023-03-23T04:47:10;9.60;99.90
55648;DHT22;45266;48.756;9.246;2023-03-23T04:48:11;9.60;99.90
55648;DHT22;45266;48.756;9.246;2023-03-23T04:49:13;9.60;99.90
55648;DHT22;45266;48.756;9.246;2023-03-23T04:50:15;9.60;99.90
55648;DHT22;45266;48.756;9.246;2023-03-23T04:51:15;9.60;99.90
55648;DHT22;45266;48.756;9.246;2023-03-23T04:52:16;9.60;99.90
55648;DHT22;45266;48.756;9.246;2023-03-23T04:53:18;9.60;99.90
55648;DHT22;45266;48.756;9.246;2023-03-23T04:54:19;9.60;99.90
55648;DHT22;45266;48.756;9.246;2023-03-23T04:55:20;9.60;99.90
55648;DHT22;45266;48.756;9.246;2023-03-23T04:56:21;9.60;99.90
55648;DHT22;45266;48.756;9.246;2023-03-23T04:57:22;9.60;99.90
55648;DHT22;45266;48.756;9.246;2023-03-23T04:58:23;9.60;99.90
55648;DHT22;45266;48.756;9.246;2023-03-23T04:59:25;9.60;99.90
55648;DHT22;45266;48.756;9.246;2023-03-23T05:00:28;9.60;99.90
55648;DHT22;45266;48.756;9.246;2023-03-23T05:01:29;9.60;99.90
55648;DHT22;45266;48.756;9.246;2023-03-23T05:02:30;9.60;99.90
55648;DHT22;45266;48.756;9.246;2023-03-23T05:03:31;9.60;99.90
55648;DHT22;45266;48.756;9.246;2023-03-23T05:04:32;9.50;99.90
55648;DHT22;45266;48.756;9.246;2023-03-23T05:05:34;9.60;99.90
55648;DHT22;45266;48.756;9.246;2023-03-23T05:06:35;9.60;99.90
55648;DHT22;45266;48.756;9.246;2023-03-23T05:07:37;9.60;99.90
55648;DHT22;45266;48.756;9.246;2023-03-23T05:08:38;9.60;99.90
55648;DHT22;45266;48.756;9.246;2023-03-23T05:09:39;9.60;99.90
55648;DHT22;45266;48.756;9.246;2023-03-23T05:10:40;9.60;99.90
55648;DHT22;45266;48.756;9.246;2023-03-23T05:11:41;9.60;99.90
55648;DHT22;45266;48.756;9.246;2023-03-23T05:12:42;9.60;99.90
55648;DHT22;45266;48.756;9.246;2023-03-23T05:13:43;9.60;99.90
55648;DHT22;45266;48.756;9.246;2023-03-23T05:14:44;9.60;99.90
55648;DHT22;45266;48.756;9.246;2023-03-23T05:15:46;9.60;99.90
55648;DHT22;45266;48.756;9.246;2023-03-23T05:16:47;9.60;99.90
55648;DHT22;45266;48.756;9.246;2023-03-23T05:17:51;9.70;99.90
55648;DHT22;45266;48.756;9.246;2023-03-23T05:18:52;9.60;99.90
55648;DHT22;45266;48.756;9.246;2023-03-23T05:19:53;9.70;99.90
55648;DHT22;45266;48.756;9.246;2023-03-23T05:20:54;9.70;99.90
55648;DHT22;45266;48.756;9.246;2023-03-23T05:21:57;9.70;99.90
55648;DHT22;45266;48.756;9.246;2023-03-23T05:23:04;9.70;99.90
55648;DHT22;45266;48.756;9.246;2023-03-23T05:24:06;9.70;99.90
55648;DHT22;45266;48.756;9.246;2023-03-23T05:25:08;9.70;99.90
55648;DHT22;45266;48.756;9.246;2023-03-23T05:26:12;9.70;99.90
55648;DHT22;45266;48.756;9.246;2023-03-23T05:27:13;9.70;99.90
55648;DHT22;45266;48.756;9.246;2023-03-23T05:28:15;9.70;99.90
55648;DHT22;45266;48.756;9.246;2023-03-23T05:29:15;9.70;99.90
55648;DHT22;45266;48.756;9.246;2023-03-23T05:30:16;9.70;99.90
55648;DHT22;45266;48.756;9.246;2023-03-23T05:31:17;9.70;99.90
55648;DHT22;45266;48.756;9.246;2023-03-23T05:32:18;9.70;99.90
55648;DHT22;45266;48.756;9.246;2023-03-23T05:33:20;9.70;99.90
55648;DHT22;45266;48.756;9.246;2023-03-23T05:34:20;9.70;99.90
55648;DHT22;45266;48.756;9.246;2023-03-23T05:35:21;9.70;99.90
55648;DHT22;45266;48.756;9.246;2023-03-23T05:36:23;9.70;99.90
55648;DHT22;45266;48.756;9.246;2023-03-23T05:37:24;9.70;99.90
55648;DHT22;45266;48.756;9.246;2023-03-23T05:38:25;9.70;99.90
55648;DHT22;45266;48.756;9.246;2023-03-23T05:39:27;9.70;99.90
55648;DHT22;45266;48.756;9.246;2023-03-23T05:40:27;9.70;99.90
55648;DHT22;45266;48.756;9.246;2023-03-23T05:41:28;9.70;99.90
55648;DHT22;45266;48.756;9.246;2023-03-23T05:42:29;9.60;99.90
55648;DHT22;45266;48.756;9.246;2023-03-23T05:43:29;9.60;99.90
55648;DHT22;45266;48.756;9.246;2023-03-23T05:44:30;9.60;99.90
55648;DHT22;45266;48.756;9.246;2023-03-23T05:45:31;9.60;99.90
55648;DHT22;45266;48.756;9.246;2023-03-23T05:46:32;9.60;99.90
55648;DHT22;45266;48.756;9.246;2023-03-23T05:47:33;9.60;99.90
55648;DHT22;45266;48.756;9.246;2023-03-23T05:48:34;9.60;99.90
55648;DHT22;45266;48.756;9.246;2023-03-23T05:49:35;9.50;99.90
55648;DHT22;45266;48.756;9.246;2023-03-23T05:50:36;9.50;99.90
55648;DHT22;45266;48.756;9.246;2023-03-23T05:51:37;9.50;99.90
55648;DHT22;45266;48.756;9.246;2023-03-23T05:52:38;9.50;99.90
55648;DHT22;45266;48.756;9.246;2023-03-23T05:53:39;9.50;99.90
55648;DHT22;45266;48.756;9.246;2023-03-23T05:54:41;9.50;99.90
55648;DHT22;45266;48.756;9.246;2023-03-23T05:55:42;9.50;99.90
55648;DHT22;45266;48.756;9.246;2023-03-23T05:56:43;9.50;99.90
55648;DHT22;45266;48.756;9.246;2023-03-23T05:57:43;9.50;99.90
55648;DHT22;45266;48.756;9.246;2023-03-23T05:58:44;9.50;99.90
55648;DHT22;45266;48.756;9.246;2023-03-23T05:59:45;9.50;99.90
55648;DHT22;45266;48.756;9.246;2023-03-23T06:00:46;9.50;99.90
55648;DHT22;45266;48.756;9.246;2023-03-23T06:01:47;9.50;99.90
55648;DHT22;45266;48.756;9.246;2023-03-23T06:02:48;9.50;99.90
55648;DHT22;45266;48.756;9.246;2023-03-23T06:03:49;9.50;99.90
55648;DHT22;45266;48.756;9.246;2023-03-23T06:04:54;9.60;99.90
55648;DHT22;45266;48.756;9.246;2023-03-23T06:05:57;9.60;99.90
55648;DHT22;45266;48.756;9.246;2023-03-23T06:07:01;9.70;99.90
55648;DHT22;45266;48.756;9.246;2023-03-23T06:08:02;9.60;99.90
55648;DHT22;45266;48.756;9.246;2023-03-23T06:09:03;9.70;99.90
55648;DHT22;45266;48.756;9.246;2023-03-23T06:10:07;9.70;99.90
55648;DHT22;45266;48.756;9.246;2023-03-23T06:11:09;9.70;99.90
55648;DHT22;45266;48.756;9.246;2023-03-23T06:12:10;9.80;99.90
55648;DHT22;45266;48.756;9.246;2023-03-23T06:13:11;9.70;99.90
55648;DHT22;45266;48.756;9.246;2023-03-23T06:14:12;9.80;99.90
55648;DHT22;45266;48.756;9.246;2023-03-23T06:15:13;9.80;99.90
55648;DHT22;45266;48.756;9.246;2023-03-23T06:16:15;9.80;99.90
55648;DHT22;45266;48.756;9.246;2023-03-23T06:17:16;9.80;99.90
55648;DHT22;45266;48.756;9.246;2023-03-23T06:18:17;9.80;99.90
55648;DHT22;45266;48.756;9.246;2023-03-23T06:19:18;9.90;99.90
55648;DHT22;45266;48.756;9.246;2023-03-23T06:20:18;9.90;99.90
55648;DHT22;45266;48.756;9.246;2023-03-23T06:21:19;9.90;99.90
55648;DHT22;45266;48.756;9.246;2023-03-23T06:22:22;9.90;99.90
55648;DHT22;45266;48.756;9.246;2023-03-23T06:23:22;9.90;99.90
55648;DHT22;45266;48.756;9.246;2023-03-23T06:24:24;9.90;99.90
55648;DHT22;45266;48.756;9.246;2023-03-23T06:25:24;9.90;99.90
55648;DHT22;45266;48.756;9.246;2023-03-23T06:26:32;10.00;99.90
55648;DHT22;45266;48.756;9.246;2023-03-23T06:27:33;10.00;99.90
55648;DHT22;45266;48.756;9.246;2023-03-23T06:28:35;10.00;99.90
55648;DHT22;45266;48.756;9.246;2023-03-23T06:29:36;10.00;99.90
55648;DHT22;45266;48.756;9.246;2023-03-23T06:30:37;10.10;99.90
55648;DHT22;45266;48.756;9.246;2023-03-23T06:31:41;10.10;99.90
55648;DHT22;45266;48.756;9.246;2023-03-23T06:32:43;10.10;99.90
55648;DHT22;45266;48.756;9.246;2023-03-23T06:33:47;10.10;99.90
55648;DHT22;45266;48.756;9.246;2023-03-23T06:34:47;10.10;99.90
55648;DHT22;45266;48.756;9.246;2023-03-23T06:35:48;10.20;99.90
55648;DHT22;45266;48.756;9.246;2023-03-23T06:36:50;10.20;99.90
55648;DHT22;45266;48.756;9.246;2023-03-23T06:37:50;10.20;99.90
55648;DHT22;45266;48.756;9.246;2023-03-23T06:38:52;10.20;99.90
55648;DHT22;45266;48.756;9.246;2023-03-23T06:39:52;10.20;99.90
55648;DHT22;45266;48.756;9.246;2023-03-23T06:40:54;10.20;99.90
55648;DHT22;45266;48.756;9.246;2023-03-23T06:41:57;10.30;99.90
55648;DHT22;45266;48.756;9.246;2023-03-23T06:42:59;10.30;99.90
55648;DHT22;45266;48.756;9.246;2023-03-23T06:44:00;10.30;99.90
55648;DHT22;45266;48.756;9.246;2023-03-23T06:45:03;10.30;99.90
55648;DHT22;45266;48.756;9.246;2023-03-23T06:46:05;10.30;99.90
55648;DHT22;45266;48.756;9.246;2023-03-23T06:47:06;10.30;99.90
55648;DHT22;45266;48.756;9.246;2023-03-23T06:48:08;10.30;99.90
55648;DHT22;45266;48.756;9.246;2023-03-23T06:49:09;10.30;99.90
55648;DHT22;45266;48.756;9.246;2023-03-23T06:50:10;10.30;99.90
55648;DHT22;45266;48.756;9.246;2023-03-23T06:51:11;10.40;99.90
55648;DHT22;45266;48.756;9.246;2023-03-23T06:52:11;10.40;99.90
55648;DHT22;45266;48.756;9.246;2023-03-23T06:53:12;10.30;99.90
55648;DHT22;45266;48.756;9.246;2023-03-23T06:54:13;10.40;99.90
55648;DHT22;45266;48.756;9.246;2023-03-23T06:55:15;10.40;99.90
55648;DHT22;45266;48.756;9.246;2023-03-23T06:56:16;10.50;99.90
55648;DHT22;45266;48.756;9.246;2023-03-23T06:57:17;10.50;99.90
55648;DHT22;45266;48.756;9.246;2023-03-23T06:58:18;10.50;99.90
55648;DHT22;45266;48.756;9.246;2023-03-23T06:59:19;10.60;99.90
55648;DHT22;45266;48.756;9.246;2023-03-23T07:00:20;10.60;99.90